Time;durP1;ratioP1;P1;durP2;ratioP2;P2;SDS_P1;SDS_P2;PMS_P1;PMS_P2;Temp;Humidity;BMP_temperature;BMP_pressure;BME280_temperature;BME280_humidity;BME280_pressure;Samples;Min_cycle;Max_cycle;Signal;HPM_P1;HPM_P2
2022/02/04 00:06:16;;;;;;;19.80;9.57;;;;;;;6.27;63.76;97397.91;10052726;29;20094;-78
2022/02/04 00:34:04;;;;;;;17.70;9.82;;;;;;;6.24;64.40;97385.22;10035554;29;20450;-78
2022/02/04 00:39:30;;;;;;;20.58;10.45;;;;;;;6.25;64.32;97381.88;10023593;29;20052;-78
2022/02/04 00:44:59;;;;;;;16.23;9.32;;;;;;;6.17;64.32;97395.09;10048825;29;20413;-78
2022/02/04 00:51:03;;;;;;;17.15;9.88;;;;;;;6.16;64.30;97381.81;10028735;29;20484;-78
2022/02/04 01:30:02;;;;;;;16.15;8.45;;;;;;;6.21;64.68;97381.56;10038032;29;20053;-78
2022/02/04 01:35:23;;;;;;;15.80;8.98;;;;;;;6.23;64.78;97367.13;10021694;29;20078;-78
2022/02/04 01:40:44;;;;;;;17.75;9.48;;;;;;;6.20;64.70;97351.66;10016892;29;20052;-78
2022/02/04 01:46:06;;;;;;;16.27;9.15;;;;;;;6.15;64.94;97347.09;10004273;29;20038;-78
2022/02/04 01:51:27;;;;;;;14.55;8.15;;;;;;;6.11;65.02;97344.00;10024894;29;20057;-78
2022/02/04 01:56:48;;;;;;;14.77;8.88;;;;;;;6.03;65.21;97336.53;10017206;29;20045;-77
2022/02/04 02:02:08;;;;;;;16.55;9.63;;;;;;;6.06;64.95;97331.13;10026812;29;20558;-78
2022/02/04 02:07:30;;;;;;;14.27;8.55;;;;;;;6.05;65.33;97330.41;10014355;29;20072;-78
2022/02/04 02:13:02;;;;;;;15.93;7.97;;;;;;;6.05;65.42;97322.09;10009416;29;20049;-78
2022/02/04 02:57:54;;;;;;;14.13;8.38;;;;;;;6.26;65.97;97329.94;10041816;29;20505;-78
2022/02/04 03:03:18;;;;;;;13.75;7.90;;;;;;;6.33;66.04;97331.88;10018579;29;20374;-78
2022/02/04 03:08:39;;;;;;;14.43;8.47;;;;;;;6.30;66.13;97336.53;10016374;29;20045;-78
2022/02/04 03:14:00;;;;;;;14.27;7.53;;;;;;;6.31;66.00;97334.50;10026899;29;20053;-78
2022/02/04 03:19:23;;;;;;;12.68;7.82;;;;;;;6.33;66.46;97331.88;10027750;29;20396;-78
2022/02/04 03:24:53;;;;;;;12.95;7.93;;;;;;;6.34;66.53;97327.78;10026460;29;20092;-78
2022/02/04 03:30:28;;;;;;;16.40;8.32;;;;;;;6.37;66.94;97340.53;10028813;29;20194;-78
2022/02/04 03:35:49;;;;;;;14.20;8.40;;;;;;;6.41;67.10;97346.38;10044141;29;20056;-78
2022/02/04 03:41:11;;;;;;;13.60;8.00;;;;;;;6.45;67.16;97351.47;10025432;29;20121;-78
2022/02/04 03:46:32;;;;;;;12.70;7.97;;;;;;;6.45;67.09;97341.13;10038482;29;20052;-78
2022/02/04 03:51:53;;;;;;;13.23;7.68;;;;;;;6.44;66.96;97339.66;10013644;29;20049;-78
2022/02/04 03:57:14;;;;;;;13.10;7.95;;;;;;;6.44;67.59;97342.44;10027809;29;20045;-78
2022/02/04 04:02:35;;;;;;;11.52;7.85;;;;;;;6.43;67.77;97348.56;10026092;29;20116;-78
2022/02/04 04:07:56;;;;;;;11.00;7.90;;;;;;;6.44;67.98;97350.00;10023583;29;20094;-78
2022/02/04 04:13:18;;;;;;;11.93;7.95;;;;;;;6.44;68.14;97353.53;10036013;29;20089;-78
2022/02/04 04:18:39;;;;;;;12.65;8.45;;;;;;;6.37;68.11;97357.16;10023158;29;20049;-78
2022/02/04 04:24:00;;;;;;;12.20;8.60;;;;;;;6.35;68.72;97354.19;10010408;29;20050;-78
2022/02/04 04:29:22;;;;;;;13.25;8.48;;;;;;;6.33;69.08;97356.81;10023141;29;20049;-78
2022/02/04 04:34:43;;;;;;;11.98;7.88;;;;;;;6.28;69.13;97343.97;10022384;29;20057;-78
2022/02/04 05:31:01;;;;;;;7.28;5.70;;;;;;;6.22;70.23;97373.97;10038144;29;20049;-78
2022/02/04 05:36:22;;;;;;;6.88;5.32;;;;;;;6.20;70.30;97382.16;10034733;29;20046;-81
2022/02/04 05:41:47;;;;;;;6.30;5.03;;;;;;;6.13;70.53;97375.38;10029542;29;20129;-78
2022/02/04 05:47:16;;;;;;;6.30;4.57;;;;;;;6.12;70.07;97376.69;10020279;29;20132;-78
2022/02/04 05:58:32;;;;;;;7.20;5.15;;;;;;;6.15;70.67;97389.41;10037172;29;20098;-78
2022/02/04 06:15:07;;;;;;;7.22;4.93;;;;;;;6.03;71.04;97408.56;9994944;29;20046;-78
2022/02/04 06:26:08;;;;;;;7.28;4.90;;;;;;;6.08;70.65;97429.03;10018729;29;20420;-78
2022/02/04 06:31:29;;;;;;;7.05;5.30;;;;;;;6.13;70.75;97428.03;10044362;29;20404;-78
2022/02/04 06:36:50;;;;;;;5.80;4.35;;;;;;;6.16;70.42;97437.97;10019043;29;20052;-78
2022/02/04 06:42:21;;;;;;;7.85;4.93;;;;;;;6.16;70.57;97448.31;10019113;29;20054;-78
2022/02/04 06:47:43;;;;;;;6.07;4.72;;;;;;;6.15;70.49;97449.63;10044082;29;20458;-78
2022/02/04 06:53:05;;;;;;;6.80;4.35;;;;;;;6.13;70.25;97449.47;10031486;29;20050;-78
2022/02/04 06:58:34;;;;;;;5.80;3.70;;;;;;;6.19;70.24;97449.97;10031494;29;20403;-78
2022/02/04 07:04:19;;;;;;;4.13;2.90;;;;;;;6.29;69.79;97450.78;10034854;29;20053;-78
2022/02/04 07:09:49;;;;;;;2.63;2.17;;;;;;;6.38;69.49;97469.50;10029872;29;20050;-80
2022/02/04 07:20:43;;;;;;;3.05;1.65;;;;;;;6.48;68.67;97480.66;10037970;29;20048;-76
2022/02/04 07:26:05;;;;;;;2.58;1.90;;;;;;;6.46;68.38;97481.22;10038028;29;20096;-77
2022/02/04 07:31:30;;;;;;;2.85;1.63;;;;;;;6.48;68.36;97489.72;10024818;29;20080;-77
2022/02/04 07:42:31;;;;;;;2.53;1.38;;;;;;;6.66;67.69;97489.66;10039464;29;20302;-77
2022/02/04 07:47:52;;;;;;;1.88;1.15;;;;;;;6.70;67.16;97487.94;10036981;29;20049;-77
2022/02/04 07:53:14;;;;;;;2.47;1.20;;;;;;;6.73;66.99;97495.09;10036888;29;20046;-77
2022/02/04 07:58:36;;;;;;;1.85;1.15;;;;;;;6.78;67.05;97487.84;10049515;29;20078;-76
2022/02/04 08:04:04;;;;;;;1.52;1.13;;;;;;;6.91;66.11;97492.28;10023678;29;20041;-78
2022/02/04 08:09:44;;;;;;;2.40;1.50;;;;;;;7.08;66.12;97475.59;10048659;29;20397;-77
2022/02/04 08:31:56;;;;;;;2.20;1.00;;;;;;;8.10;63.16;97500.53;10038771;29;20499;-77
2022/02/04 09:04:51;;;;;;;1.15;0.60;;;;;;;8.00;61.45;97519.25;10034064;29;20049;-77
2022/02/04 09:10:14;;;;;;;1.20;0.47;;;;;;;8.18;60.48;97515.03;9991122;29;20064;-77
2022/02/04 09:21:36;;;;;;;1.92;0.90;;;;;;;8.93;58.25;97511.31;10010978;29;20489;-77
2022/02/04 09:26:57;;;;;;;3.20;1.30;;;;;;;8.94;59.74;97514.84;9988094;29;20062;-76
2022/02/04 09:32:17;;;;;;;2.58;0.85;;;;;;;8.96;58.68;97520.53;10008377;29;20481;-76
2022/02/04 09:37:38;;;;;;;2.20;0.82;;;;;;;9.26;58.57;97517.06;10008343;29;20050;-76
2022/02/04 09:43:00;;;;;;;1.83;0.75;;;;;;;9.26;57.02;97505.19;9995549;29;20053;-76
2022/02/04 09:48:21;;;;;;;1.27;0.73;;;;;;;9.50;57.38;97514.50;10026043;29;20053;-76
2022/02/04 10:22:29;;;;;;;1.75;1.10;;;;;;;10.21;53.98;97499.66;10034689;29;20473;-77
2022/02/04 10:27:52;;;;;;;1.58;1.00;;;;;;;10.44;54.25;97496.31;10019021;29;20447;-78
2022/02/04 10:33:16;;;;;;;5.38;1.70;;;;;;;11.65;53.46;97489.06;10021079;29;20139;-78
2022/02/04 10:38:43;;;;;;;1.77;1.25;;;;;;;13.01;50.67;97478.50;10021323;29;20053;-77
2022/02/04 10:44:20;;;;;;;2.65;0.82;;;;;;;14.03;49.51;97479.63;10013446;29;20061;-78
2022/02/04 10:49:57;;;;;;;2.80;1.10;;;;;;;15.21;46.04;97478.88;9993420;29;20046;-78
2022/02/04 11:12:06;;;;;;;1.42;0.50;;;;;;;10.87;47.37;97463.41;10041166;29;20080;-76
2022/02/04 11:34:38;;;;;;;2.95;0.40;;;;;;;8.83;49.14;97433.41;10025087;29;20048;-77
2022/02/04 11:51:48;;;;;;;2.08;0.63;;;;;;;9.50;49.70;97416.97;10000119;29;20062;-76
2022/02/04 11:57:10;;;;;;;1.15;0.68;;;;;;;10.36;48.53;97412.81;10025050;29;20046;-77
2022/02/04 12:02:34;;;;;;;1.45;0.40;;;;;;;10.27;47.27;97411.56;10001539;29;20171;-79
2022/02/04 12:08:10;;;;;;;0.80;0.57;;;;;;;9.64;48.09;97401.19;10023360;29;20045;-79
2022/02/04 12:13:32;;;;;;;0.60;0.30;;;;;;;9.40;48.89;97403.84;10010579;29;20065;-77
2022/02/04 12:19:07;;;;;;;0.98;0.60;;;;;;;9.08;49.55;97398.91;10000382;29;20450;-80
2022/02/04 12:24:29;;;;;;;1.27;0.60;;;;;;;9.11;49.75;97394.91;10006224;29;20137;-80
2022/02/04 12:29:50;;;;;;;1.20;0.65;;;;;;;9.10;49.97;97379.53;10026362;29;20118;-80
2022/02/04 12:35:16;;;;;;;1.70;1.00;;;;;;;9.04;49.97;97374.28;10026514;29;20408;-78
2022/02/04 12:40:37;;;;;;;1.88;0.60;;;;;;;9.64;50.18;97348.22;10040172;29;20522;-80
2022/02/04 12:45:58;;;;;;;1.40;0.70;;;;;;;10.57;48.87;97351.34;10023618;29;20045;-79
2022/02/04 12:51:35;;;;;;;1.83;0.68;;;;;;;11.24;47.83;97328.72;10263358;24;20139;-81
2022/02/04 13:13:59;;;;;;;1.70;0.68;;;;;;;10.85;46.21;97326.47;10006370;29;20050;-83
2022/02/04 13:19:20;;;;;;;1.58;0.70;;;;;;;10.24;46.98;97325.56;9970381;29;20052;-81
2022/02/04 13:24:42;;;;;;;1.50;0.60;;;;;;;9.78;48.03;97332.44;9930210;29;20098;-78
2022/02/04 13:30:25;;;;;;;1.80;0.70;;;;;;;10.08;48.30;97321.75;9936091;29;20039;-77
2022/02/04 13:36:09;;;;;;;1.17;0.63;;;;;;;10.82;47.08;97308.16;9954106;29;20057;-77
2022/02/04 13:52:25;;;;;;;1.17;0.40;;;;;;;9.76;47.94;97307.22;9908703;29;20418;-77
2022/02/04 13:57:53;;;;;;;1.17;0.40;;;;;;;9.42;48.32;97300.91;9911094;29;20054;-78
2022/02/04 14:03:24;;;;;;;0.70;0.50;;;;;;;9.10;49.07;97293.94;9909745;29;20091;-77
2022/02/04 14:09:07;;;;;;;1.40;0.57;;;;;;;8.97;49.10;97290.94;9858599;30;20113;-77
2022/02/04 14:14:28;;;;;;;1.02;0.45;;;;;;;9.03;49.64;97272.59;9874521;30;20108;-78
2022/02/04 14:19:49;;;;;;;1.70;0.40;;;;;;;9.04;49.54;97270.53;9883145;30;20052;-79
2022/02/04 14:25:10;;;;;;;1.17;0.40;;;;;;;8.88;49.17;97268.16;9888931;29;20406;-77
2022/02/04 14:30:36;;;;;;;0.75;0.40;;;;;;;8.72;49.36;97258.72;9919709;29;20043;-78
2022/02/04 14:36:12;;;;;;;1.95;0.40;;;;;;;8.62;50.04;97255.28;9905744;29;20047;-82
2022/02/04 14:53:02;;;;;;;1.48;0.60;;;;;;;8.25;51.12;97238.13;9900605;29;20051;-77
2022/02/04 15:04:25;;;;;;;1.50;0.70;;;;;;;8.01;51.97;97240.72;9921636;29;20115;-78
2022/02/04 15:09:55;;;;;;;1.90;0.70;;;;;;;8.01;52.18;97237.22;9943181;29;20058;-77
2022/02/04 15:15:16;;;;;;;1.83;0.70;;;;;;;7.99;52.17;97232.22;9916102;29;20047;-77
2022/02/04 15:20:37;;;;;;;2.63;0.50;;;;;;;7.96;52.47;97222.28;9916756;29;20061;-77
2022/02/04 15:26:00;;;;;;;1.15;0.60;;;;;;;7.87;52.86;97219.53;9920097;29;20054;-77
2022/02/04 15:31:37;;;;;;;2.17;0.50;;;;;;;7.87;52.69;97202.88;9962859;29;20406;-77
2022/02/04 15:36:58;;;;;;;1.13;0.50;;;;;;;7.85;53.29;97186.06;9895469;29;20062;-77
2022/02/04 15:42:20;;;;;;;0.80;0.30;;;;;;;7.85;53.46;97177.72;9906054;29;20043;-78
2022/02/04 15:59:05;;;;;;;3.03;0.90;;;;;;;7.67;53.49;97166.81;9909453;29;20055;-77
2022/02/04 16:04:30;;;;;;;2.17;0.88;;;;;;;7.47;53.52;97160.59;9960297;29;20050;-77
2022/02/04 16:09:58;;;;;;;3.15;1.02;;;;;;;7.40;54.38;97157.97;9948536;29;20137;-77
2022/02/04 16:15:34;;;;;;;2.50;1.35;;;;;;;7.39;54.95;97154.47;9973801;29;20583;-77
2022/02/04 16:31:56;;;;;;;1.75;0.80;;;;;;;7.16;55.02;97149.41;9962124;29;20050;-75
2022/02/04 16:37:26;;;;;;;2.65;1.35;;;;;;;7.20;55.36;97148.22;9991309;29;20401;-81
2022/02/04 16:42:50;;;;;;;2.53;1.35;;;;;;;7.24;55.40;97142.94;9942888;29;20049;-81
2022/02/04 16:48:11;;;;;;;3.77;1.20;;;;;;;7.21;55.75;97144.13;9988284;29;20041;-83
2022/02/04 16:53:36;;;;;;;3.33;1.15;;;;;;;7.08;55.84;97143.25;10003272;29;20047;-82
2022/02/04 16:58:59;;;;;;;4.88;1.38;;;;;;;7.15;56.04;97139.63;9989280;29;20110;-78
2022/02/04 17:04:20;;;;;;;4.20;1.30;;;;;;;7.22;55.98;97145.56;9949771;29;20050;-77
2022/02/04 17:09:47;;;;;;;3.25;0.90;;;;;;;7.25;55.82;97144.41;9908867;29;20047;-80
2022/02/04 17:15:09;;;;;;;1.58;0.75;;;;;;;7.26;56.05;97151.44;9922163;29;20057;-76
2022/02/04 17:20:30;;;;;;;3.45;1.05;;;;;;;7.30;56.23;97135.03;9908604;29;20054;-76
2022/02/04 17:25:50;;;;;;;2.05;0.70;;;;;;;7.29;56.54;97141.91;9908355;29;20398;-77
2022/02/04 17:31:11;;;;;;;2.92;0.85;;;;;;;7.25;56.85;97139.59;9920563;29;20130;-77
2022/02/04 17:36:33;;;;;;;1.40;0.70;;;;;;;7.30;56.78;97140.59;9879003;30;20406;-76
2022/02/04 17:41:57;;;;;;;2.72;0.80;;;;;;;7.32;56.89;97126.84;9849631;30;20143;-76
2022/02/04 17:47:19;;;;;;;2.67;0.85;;;;;;;7.36;56.83;97129.94;9883394;30;20085;-76
2022/02/04 17:52:53;;;;;;;5.20;1.10;;;;;;;7.38;56.89;97130.78;9882941;30;20403;-78
2022/02/04 18:09:10;;;;;;;2.33;1.40;;;;;;;7.34;56.99;97127.75;9915119;30;20074;-81
2022/02/04 18:14:31;;;;;;;3.35;1.15;;;;;;;7.40;57.08;97138.53;9890907;30;20097;-77
2022/02/04 18:19:52;;;;;;;2.20;1.33;;;;;;;7.36;57.06;97132.69;9869906;30;20406;-76
2022/02/04 18:25:13;;;;;;;2.83;1.70;;;;;;;7.33;57.24;97140.13;9869477;30;20082;-76
2022/02/04 18:30:35;;;;;;;3.03;1.48;;;;;;;7.41;57.02;97137.22;9869777;30;20050;-75
2022/02/04 18:36:00;;;;;;;2.08;1.23;;;;;;;7.43;56.57;97120.69;9869603;30;20487;-78
2022/02/04 18:47:47;;;;;;;3.63;0.68;;;;;;;7.37;56.21;97123.78;9895259;30;20138;-75
2022/02/04 18:52:43;;;;;;;1.10;0.60;;;;;;;7.36;56.27;97127.88;9884420;30;20047;-77
2022/02/04 18:58:04;;;;;;;3.35;0.73;;;;;;;7.36;56.03;97146.59;9869840;30;20304;-77
2022/02/04 19:03:37;;;;;;;1.30;0.63;;;;;;;7.34;56.33;97138.84;9869291;30;20058;-76
2022/02/04 19:09:01;;;;;;;1.40;0.63;;;;;;;7.29;56.37;97134.31;9886463;30;20059;-77
2022/02/04 19:15:20;;;;;;;1.98;1.00;;;;;;;7.26;56.73;97112.56;9870257;29;20551;-77
2022/02/04 19:20:13;;;;;;;1.63;0.90;;;;;;;7.24;56.69;97112.41;9891769;30;20131;-77
2022/02/04 19:25:39;;;;;;;2.10;1.20;;;;;;;7.20;57.46;97121.19;9876301;30;20047;-77
2022/02/04 19:31:00;;;;;;;1.88;1.08;;;;;;;7.24;57.08;97115.19;9888843;30;20047;-76
2022/02/04 19:36:21;;;;;;;1.67;0.90;;;;;;;7.25;56.91;97117.38;9887160;29;20126;-77
2022/02/04 19:41:48;;;;;;;1.83;0.80;;;;;;;7.24;57.51;97109.63;9905330;29;20219;-78
2022/02/04 19:47:14;;;;;;;1.77;0.60;;;;;;;7.23;57.54;97113.72;9900108;29;20062;-77
2022/02/04 20:26:15;;;;;;;2.28;1.00;;;;;;;7.07;59.06;97091.84;9887754;29;20054;-78
2022/02/04 20:31:38;;;;;;;3.15;1.13;;;;;;;6.95;59.26;97084.69;9874642;30;20449;-78
2022/02/04 20:36:58;;;;;;;2.13;1.08;;;;;;;6.85;59.34;97079.16;9873771;30;20491;-77
2022/02/04 20:42:20;;;;;;;2.03;1.10;;;;;;;6.65;59.44;97080.50;9873417;30;20043;-77
2022/02/04 20:47:44;;;;;;;1.83;1.00;;;;;;;6.57;59.86;97070.31;9886069;30;20058;-78
2022/02/04 20:53:05;;;;;;;2.13;1.10;;;;;;;6.48;60.32;97059.22;9861374;30;20047;-77
2022/02/04 20:58:27;;;;;;;1.17;0.82;;;;;;;6.46;60.21;97075.69;9873295;30;20082;-77
2022/02/04 21:03:48;;;;;;;2.88;1.55;;;;;;;6.43;60.64;97071.31;9884196;30;20051;-77
2022/02/04 21:19:50;;;;;;;2.05;1.25;;;;;;;6.43;60.98;97049.13;9883961;30;20122;-77
2022/02/04 21:25:12;;;;;;;2.10;1.10;;;;;;;6.39;60.60;97044.03;9870684;30;20050;-78
2022/02/04 21:30:34;;;;;;;2.00;1.10;;;;;;;6.38;61.07;97056.44;9856866;30;20051;-77
2022/02/04 21:42:08;;;;;;;1.52;0.77;;;;;;;6.21;61.05;97073.19;9887518;30;20425;-77
2022/02/04 21:47:34;;;;;;;1.85;0.60;;;;;;;6.26;61.03;97064.59;9867367;30;20055;-78
2022/02/04 21:53:12;;;;;;;2.17;0.80;;;;;;;6.21;60.94;97051.03;9855780;30;20103;-77
2022/02/04 21:58:47;;;;;;;1.50;0.70;;;;;;;6.08;61.41;97059.75;9879112;30;20054;-77
2022/02/04 22:04:08;;;;;;;1.20;0.70;;;;;;;5.99;61.89;97053.63;9874627;30;20054;-78
2022/02/04 22:09:40;;;;;;;1.08;0.60;;;;;;;5.94;61.83;97049.09;9872666;30;20044;-77
2022/02/04 22:15:20;;;;;;;3.17;0.75;;;;;;;5.90;62.15;97062.66;9862390;30;20051;-77
2022/02/04 22:26:27;;;;;;;0.90;0.50;;;;;;;5.96;62.43;97054.78;9860897;30;20071;-76
2022/02/04 22:31:48;;;;;;;1.60;0.50;;;;;;;6.08;62.36;97043.13;9854047;30;20040;-77
2022/02/04 22:37:27;;;;;;;0.90;0.43;;;;;;;6.22;62.62;97055.25;9869311;30;20101;-80
2022/02/04 22:59:46;;;;;;;3.67;0.80;;;;;;;6.39;62.37;97066.22;9853546;30;20119;-76
2022/02/04 23:05:07;;;;;;;1.30;0.50;;;;;;;6.40;62.34;97048.25;9858523;30;20190;-77
2022/02/04 23:10:28;;;;;;;2.83;0.77;;;;;;;6.45;62.54;97063.13;9889238;30;20047;-77
2022/02/04 23:15:54;;;;;;;1.35;0.75;;;;;;;6.47;62.62;97066.06;9888574;30;20055;-77
2022/02/04 23:21:21;;;;;;;3.80;0.70;;;;;;;6.47;62.33;97057.75;9890005;30;20085;-77
2022/02/04 23:26:50;;;;;;;1.75;0.60;;;;;;;6.46;62.90;97034.81;9889124;30;20051;-77
2022/02/04 23:54:49;;;;;;;1.73;0.50;;;;;;;6.54;64.48;97101.94;9892471;30;20455;-77
